sensor_id;sensor_type;location;lat;lon;timestamp;pressure;altitude;pressure_sealevel;temperature;humidity
23659;BME280;12006;42.666;23.326;2023-03-18T00:00:39;-23823.91;;;1.50;100.00
23659;BME280;12006;42.666;23.326;2023-03-18T00:03:05;-23824.25;;;1.51;100.00
23659;BME280;12006;42.666;23.326;2023-03-18T00:05:31;-23823.56;;;1.49;100.00
23659;BME280;12006;42.666;23.326;2023-03-18T00:07:57;-23814.09;;;1.22;100.00
23659;BME280;12006;42.666;23.326;2023-03-18T00:10:22;-23816.16;;;1.28;100.00
23659;BME280;12006;42.666;23.326;2023-03-18T00:12:48;-23820.13;;;1.39;100.00
23659;BME280;12006;42.666;23.326;2023-03-18T00:15:14;-23820.66;;;1.41;100.00
23659;BME280;12006;42.666;23.326;2023-03-18T00:17:41;-23822.53;;;1.46;100.00
23659;BME280;12006;42.666;23.326;2023-03-18T00:20:08;-23822.38;;;1.46;100.00
23659;BME280;12006;42.666;23.326;2023-03-18T00:22:37;-23816.34;;;1.28;100.00
23659;BME280;12006;42.666;23.326;2023-03-18T00:25:05;-23813.06;;;1.19;100.00
23659;BME280;12006;42.666;23.326;2023-03-18T00:27:32;-23817.03;;;1.30;100.00
23659;BME280;12006;42.666;23.326;2023-03-18T00:29:58;-23820.66;;;1.41;100.00
23659;BME280;12006;42.666;23.326;2023-03-18T00:32:27;-23822.03;;;1.45;100.00
23659;BME280;12006;42.666;23.326;2023-03-18T00:34:54;-23821.50;;;1.43;100.00
23659;BME280;12006;42.666;23.326;2023-03-18T00:37:20;-23818.56;;;1.35;100.00
23659;BME280;12006;42.666;23.326;2023-03-18T00:40:06;-23816.34;;;1.28;100.00
23659;BME280;12006;42.666;23.326;2023-03-18T00:42:33;-23813.75;;;1.21;100.00
23659;BME280;12006;42.666;23.326;2023-03-18T00:45:07;-23811.34;;;1.14;100.00
23659;BME280;12006;42.666;23.326;2023-03-18T00:47:34;-23810.13;;;1.11;100.00
23659;BME280;12006;42.666;23.326;2023-03-18T00:50:00;-23810.13;;;1.11;100.00
23659;BME280;12006;42.666;23.326;2023-03-18T00:52:26;-23808.41;;;1.06;100.00
23659;BME280;12006;42.666;23.326;2023-03-18T00:54:51;-23806.69;;;1.01;100.00
23659;BME280;12006;42.666;23.326;2023-03-18T00:57:17;-23802.53;;;0.89;100.00
23659;BME280;12006;42.666;23.326;2023-03-18T00:59:42;-23799.44;;;0.80;100.00
23659;BME280;12006;42.666;23.326;2023-03-18T01:02:08;-23797.72;;;0.75;100.00
23659;BME280;12006;42.666;23.326;2023-03-18T01:04:33;-23794.94;;;0.67;100.00
23659;BME280;12006;42.666;23.326;2023-03-18T01:06:59;-23795.47;;;0.68;100.00
23659;BME280;12006;42.666;23.326;2023-03-18T01:09:25;-23797.38;;;0.74;100.00
23659;BME280;12006;42.666;23.326;2023-03-18T01:11:51;-23797.38;;;0.74;100.00
23659;BME280;12006;42.666;23.326;2023-03-18T01:14:17;-23801.16;;;0.85;100.00
23659;BME280;12006;42.666;23.326;2023-03-18T01:16:43;-23801.84;;;0.87;100.00
23659;BME280;12006;42.666;23.326;2023-03-18T01:19:09;-23803.91;;;0.93;100.00
23659;BME280;12006;42.666;23.326;2023-03-18T01:21:34;-23803.91;;;0.93;100.00
23659;BME280;12006;42.666;23.326;2023-03-18T01:24:00;-23802.72;;;0.89;100.00
23659;BME280;12006;42.666;23.326;2023-03-18T01:26:26;-23801.00;;;0.84;100.00
23659;BME280;12006;42.666;23.326;2023-03-18T01:28:51;-23800.31;;;0.82;100.00
23659;BME280;12006;42.666;23.326;2023-03-18T01:31:17;-23803.06;;;0.90;100.00
23659;BME280;12006;42.666;23.326;2023-03-18T01:33:44;-23801.50;;;0.86;100.00
23659;BME280;12006;42.666;23.326;2023-03-18T01:36:10;-23803.41;;;0.91;100.00
23659;BME280;12006;42.666;23.326;2023-03-18T01:38:36;-23802.19;;;0.88;100.00
23659;BME280;12006;42.666;23.326;2023-03-18T01:41:03;-23799.94;;;0.81;100.00
23659;BME280;12006;42.666;23.326;2023-03-18T01:43:32;-23802.19;;;0.88;100.00
23659;BME280;12006;42.666;23.326;2023-03-18T01:46:00;-23798.06;;;0.76;100.00
23659;BME280;12006;42.666;23.326;2023-03-18T01:48:29;-23800.66;;;0.83;100.00
23659;BME280;12006;42.666;23.326;2023-03-18T01:51:00;-23802.72;;;0.89;100.00
23659;BME280;12006;42.666;23.326;2023-03-18T01:53:31;-23801.34;;;0.85;100.00
23659;BME280;12006;42.666;23.326;2023-03-18T01:56:00;-23795.47;;;0.68;100.00
23659;BME280;12006;42.666;23.326;2023-03-18T01:58:31;-23794.09;;;0.64;100.00
23659;BME280;12006;42.666;23.326;2023-03-18T02:01:02;-23794.25;;;0.65;100.00
23659;BME280;12006;42.666;23.326;2023-03-18T02:03:29;-23789.59;;;0.52;100.00
23659;BME280;12006;42.666;23.326;2023-03-18T02:05:55;-23790.13;;;0.53;100.00
23659;BME280;12006;42.666;23.326;2023-03-18T02:08:21;-23789.44;;;0.51;100.00
23659;BME280;12006;42.666;23.326;2023-03-18T02:10:48;-23789.44;;;0.51;100.00
23659;BME280;12006;42.666;23.326;2023-03-18T02:13:14;-23789.78;;;0.52;100.00
23659;BME280;12006;42.666;23.326;2023-03-18T02:15:50;-23788.06;;;0.47;100.00
23659;BME280;12006;42.666;23.326;2023-03-18T02:18:24;-23786.69;;;0.43;100.00
23659;BME280;12006;42.666;23.326;2023-03-18T02:26:18;-23787.19;;;0.45;100.00
23659;BME280;12006;42.666;23.326;2023-03-18T02:28:48;-23789.94;;;0.53;100.00
23659;BME280;12006;42.666;23.326;2023-03-18T02:31:15;-23793.91;;;0.64;100.00
23659;BME280;12006;42.666;23.326;2023-03-18T02:33:43;-23795.13;;;0.67;100.00
23659;BME280;12006;42.666;23.326;2023-03-18T02:36:19;-23795.47;;;0.68;100.00
23659;BME280;12006;42.666;23.326;2023-03-18T02:38:46;-23792.53;;;0.60;100.00
23659;BME280;12006;42.666;23.326;2023-03-18T02:41:18;-23790.63;;;0.55;100.00
23659;BME280;12006;42.666;23.326;2023-03-18T02:43:44;-23795.13;;;0.67;100.00
23659;BME280;12006;42.666;23.326;2023-03-18T02:46:11;-23799.09;;;0.79;100.00
23659;BME280;12006;42.666;23.326;2023-03-18T02:48:41;-23801.16;;;0.85;100.00
23659;BME280;12006;42.666;23.326;2023-03-18T02:51:09;-23801.16;;;0.85;100.00
23659;BME280;12006;42.666;23.326;2023-03-18T02:53:36;-23799.09;;;0.79;100.00
23659;BME280;12006;42.666;23.326;2023-03-18T02:56:01;-23799.94;;;0.81;100.00
23659;BME280;12006;42.666;23.326;2023-03-18T02:58:27;-23798.41;;;0.77;100.00
23659;BME280;12006;42.666;23.326;2023-03-18T03:00:53;-23794.94;;;0.67;100.00
23659;BME280;12006;42.666;23.326;2023-03-18T03:03:19;-23793.06;;;0.61;100.00
23659;BME280;12006;42.666;23.326;2023-03-18T03:05:45;-23789.44;;;0.51;100.00
23659;BME280;12006;42.666;23.326;2023-03-18T03:08:11;-23784.59;;;0.37;100.00
23659;BME280;12006;42.666;23.326;2023-03-18T03:10:36;-23784.25;;;0.36;100.00
23659;BME280;12006;42.666;23.326;2023-03-18T03:13:02;-23783.75;;;0.35;100.00
23659;BME280;12006;42.666;23.326;2023-03-18T03:15:28;-23781.50;;;0.28;100.00
23659;BME280;12006;42.666;23.326;2023-03-18T03:17:54;-23782.53;;;0.31;100.00
23659;BME280;12006;42.666;23.326;2023-03-18T03:20:20;-23784.09;;;0.36;100.00
23659;BME280;12006;42.666;23.326;2023-03-18T03:22:46;-23782.53;;;0.31;100.00
23659;BME280;12006;42.666;23.326;2023-03-18T03:25:12;-23782.88;;;0.32;100.00
23659;BME280;12006;42.666;23.326;2023-03-18T03:27:39;-23781.84;;;0.29;100.00
23659;BME280;12006;42.666;23.326;2023-03-18T03:30:08;-23782.88;;;0.32;100.00
23659;BME280;12006;42.666;23.326;2023-03-18T03:32:35;-23782.53;;;0.31;100.00
23659;BME280;12006;42.666;23.326;2023-03-18T03:35:00;-23778.75;;;0.20;100.00
23659;BME280;12006;42.666;23.326;2023-03-18T03:37:26;-23784.94;;;0.38;100.00
23659;BME280;12006;42.666;23.326;2023-03-18T03:39:52;-23787.88;;;0.47;100.00
23659;BME280;12006;42.666;23.326;2023-03-18T03:42:18;-23786.00;;;0.41;100.00
23659;BME280;12006;42.666;23.326;2023-03-18T03:44:44;-23784.25;;;0.36;100.00
23659;BME280;12006;42.666;23.326;2023-03-18T03:47:10;-23783.91;;;0.35;100.00
23659;BME280;12006;42.666;23.326;2023-03-18T03:49:36;-23775.81;;;0.12;100.00
23659;BME280;12006;42.666;23.326;2023-03-18T03:52:03;-23780.13;;;0.24;100.00
23659;BME280;12006;42.666;23.326;2023-03-18T03:54:28;-23780.47;;;0.25;100.00
23659;BME280;12006;42.666;23.326;2023-03-18T03:56:54;-23782.03;;;0.30;100.00
23659;BME280;12006;42.666;23.326;2023-03-18T03:59:20;-23778.22;;;0.19;100.00
23659;BME280;12006;42.666;23.326;2023-03-18T04:01:46;-23778.06;;;0.18;100.00
23659;BME280;12006;42.666;23.326;2023-03-18T04:04:11;-23777.19;;;0.16;100.00
23659;BME280;12006;42.666;23.326;2023-03-18T04:06:37;-23777.19;;;0.16;100.00
23659;BME280;12006;42.666;23.326;2023-03-18T04:09:03;-23778.06;;;0.18;100.00
23659;BME280;12006;42.666;23.326;2023-03-18T04:11:29;-23777.72;;;0.17;100.00
23659;BME280;12006;42.666;23.326;2023-03-18T04:13:55;-23780.47;;;0.25;100.00
23659;BME280;12006;42.666;23.326;2023-03-18T04:16:20;-23780.81;;;0.26;100.00
23659;BME280;12006;42.666;23.326;2023-03-18T04:18:46;-23776.31;;;0.13;100.00
23659;BME280;12006;42.666;23.326;2023-03-18T04:21:12;-23771.69;;;0.00;100.00
23659;BME280;12006;42.666;23.326;2023-03-18T04:23:37;-23775.97;;;0.12;100.00
23659;BME280;12006;42.666;23.326;2023-03-18T04:26:03;-23776.31;;;0.13;100.00
23659;BME280;12006;42.666;23.326;2023-03-18T04:28:29;-23776.69;;;0.14;100.00
23659;BME280;12006;42.666;23.326;2023-03-18T04:30:55;-23778.56;;;0.20;100.00
23659;BME280;12006;42.666;23.326;2023-03-18T04:33:21;-23780.63;;;0.26;100.00
23659;BME280;12006;42.666;23.326;2023-03-18T04:35:46;-23783.91;;;0.35;100.00
23659;BME280;12006;42.666;23.326;2023-03-18T04:38:13;-23789.09;;;0.50;100.00
23659;BME280;12006;42.666;23.326;2023-03-18T04:40:38;-23785.28;;;0.39;100.00
23659;BME280;12006;42.666;23.326;2023-03-18T04:43:04;-23780.81;;;0.26;100.00
23659;BME280;12006;42.666;23.326;2023-03-18T04:45:29;-23778.06;;;0.18;100.00
23659;BME280;12006;42.666;23.326;2023-03-18T04:47:55;-23774.94;;;0.09;100.00
23659;BME280;12006;42.666;23.326;2023-03-18T04:50:21;-23770.47;;;-0.03;100.00
23659;BME280;12006;42.666;23.326;2023-03-18T04:52:46;-23769.44;;;-0.06;100.00
23659;BME280;12006;42.666;23.326;2023-03-18T04:55:13;-23769.59;;;-0.06;100.00
23659;BME280;12006;42.666;23.326;2023-03-18T04:57:41;-23771.84;;;0.00;100.00
23659;BME280;12006;42.666;23.326;2023-03-18T05:00:10;-23775.97;;;0.12;100.00
23659;BME280;12006;42.666;23.326;2023-03-18T05:02:37;-23771.84;;;0.00;100.00
23659;BME280;12006;42.666;23.326;2023-03-18T05:05:04;-23784.25;;;0.36;100.00
23659;BME280;12006;42.666;23.326;2023-03-18T05:07:29;-23784.59;;;0.37;100.00
23659;BME280;12006;42.666;23.326;2023-03-18T05:09:56;-23786.84;;;0.44;100.00
23659;BME280;12006;42.666;23.326;2023-03-18T05:12:21;-23788.56;;;0.49;100.00
23659;BME280;12006;42.666;23.326;2023-03-18T05:14:47;-23787.19;;;0.45;100.00
23659;BME280;12006;42.666;23.326;2023-03-18T05:17:13;-23789.09;;;0.50;100.00
23659;BME280;12006;42.666;23.326;2023-03-18T05:19:43;-23788.41;;;0.48;100.00
23659;BME280;12006;42.666;23.326;2023-03-18T05:22:09;-23793.56;;;0.63;100.00
23659;BME280;12006;42.666;23.326;2023-03-18T05:24:36;-23795.31;;;0.68;100.00
23659;BME280;12006;42.666;23.326;2023-03-18T05:27:02;-23797.38;;;0.74;100.00
23659;BME280;12006;42.666;23.326;2023-03-18T05:29:27;-23797.72;;;0.75;100.00
23659;BME280;12006;42.666;23.326;2023-03-18T05:31:53;-23797.03;;;0.73;100.00
23659;BME280;12006;42.666;23.326;2023-03-18T05:34:18;-23801.16;;;0.85;100.00
23659;BME280;12006;42.666;23.326;2023-03-18T05:36:44;-23801.00;;;0.84;100.00
23659;BME280;12006;42.666;23.326;2023-03-18T05:39:09;-23802.03;;;0.87;100.00
23659;BME280;12006;42.666;23.326;2023-03-18T05:41:35;-23806.00;;;0.99;100.00
23659;BME280;12006;42.666;23.326;2023-03-18T05:44:00;-23811.34;;;1.14;100.00
23659;BME280;12006;42.666;23.326;2023-03-18T05:46:25;-23816.16;;;1.28;100.00
23659;BME280;12006;42.666;23.326;2023-03-18T05:48:51;-23822.03;;;1.45;100.00
23659;BME280;12006;42.666;23.326;2023-03-18T05:51:16;-23826.84;;;1.59;100.00
23659;BME280;12006;42.666;23.326;2023-03-18T05:53:42;-23830.97;;;1.71;100.00
23659;BME280;12006;42.666;23.326;2023-03-18T05:56:07;-23835.66;;;1.84;100.00
23659;BME280;12006;42.666;23.326;2023-03-18T05:58:33;-23842.38;;;2.03;100.00
23659;BME280;12006;42.666;23.326;2023-03-18T06:00:58;-23849.09;;;2.23;100.00
23659;BME280;12006;42.666;23.326;2023-03-18T06:03:24;-23845.47;;;2.12;100.00
23659;BME280;12006;42.666;23.326;2023-03-18T06:05:50;-23847.00;;;2.17;100.00
23659;BME280;12006;42.666;23.326;2023-03-18T06:08:16;-23846.31;;;2.15;100.00
23659;BME280;12006;42.666;23.326;2023-03-18T06:10:42;-23848.75;;;2.22;100.00
23659;BME280;12006;42.666;23.326;2023-03-18T06:13:09;-23853.91;;;2.37;100.00
23659;BME280;12006;42.666;23.326;2023-03-18T06:15:35;-23856.16;;;2.43;100.00
23659;BME280;12006;42.666;23.326;2023-03-18T06:18:02;-23857.00;;;2.45;100.00
23659;BME280;12006;42.666;23.326;2023-03-18T06:20:27;-23861.50;;;2.58;100.00
23659;BME280;12006;42.666;23.326;2023-03-18T06:22:53;-23861.84;;;2.59;100.00
23659;BME280;12006;42.666;23.326;2023-03-18T06:25:20;-23860.81;;;2.56;100.00
23659;BME280;12006;42.666;23.326;2023-03-18T06:27:45;-23860.97;;;2.57;100.00
23659;BME280;12006;42.666;23.326;2023-03-18T06:30:12;-23865.09;;;2.69;100.00
23659;BME280;12006;42.666;23.326;2023-03-18T06:32:38;-23865.63;;;2.70;100.00
23659;BME280;12006;42.666;23.326;2023-03-18T06:35:05;-23872.88;;;2.91;100.00
23659;BME280;12006;42.666;23.326;2023-03-18T06:37:30;-23875.97;;;3.00;100.00
23659;BME280;12006;42.666;23.326;2023-03-18T06:39:57;-23877.69;;;3.05;100.00
23659;BME280;12006;42.666;23.326;2023-03-18T06:42:22;-23880.09;;;3.12;100.00
23659;BME280;12006;42.666;23.326;2023-03-18T06:44:48;-23884.56;;;3.25;100.00
23659;BME280;12006;42.666;23.326;2023-03-18T06:47:20;-23887.50;;;3.33;100.00
23659;BME280;12006;42.666;23.326;2023-03-18T06:49:49;-23889.22;;;3.38;100.00
23659;BME280;12006;42.666;23.326;2023-03-18T06:52:15;-23890.09;;;3.41;100.00
23659;BME280;12006;42.666;23.326;2023-03-18T06:54:41;-23889.06;;;3.38;100.00
23659;BME280;12006;42.666;23.326;2023-03-18T06:57:07;-23893.19;;;3.50;100.00
23659;BME280;12006;42.666;23.326;2023-03-18T06:59:33;-23900.25;;;3.70;100.00
23659;BME280;12006;42.666;23.326;2023-03-18T07:01:58;-23904.72;;;3.83;100.00
23659;BME280;12006;42.666;23.326;2023-03-18T07:04:24;-23906.97;;;3.89;100.00
23659;BME280;12006;42.666;23.326;2023-03-18T07:06:50;-23913.16;;;4.07;100.00
23659;BME280;12006;42.666;23.326;2023-03-18T07:09:17;-23918.69;;;4.23;100.00
23659;BME280;12006;42.666;23.326;2023-03-18T07:11:43;-23918.69;;;4.23;100.00
23659;BME280;12006;42.666;23.326;2023-03-18T07:14:11;-23916.94;;;4.18;100.00
23659;BME280;12006;42.666;23.326;2023-03-18T07:16:39;-23916.94;;;4.18;100.00
23659;BME280;12006;42.666;23.326;2023-03-18T07:19:04;-23912.81;;;4.06;100.00
23659;BME280;12006;42.666;23.326;2023-03-18T07:21:30;-23912.47;;;4.05;100.00
23659;BME280;12006;42.666;23.326;2023-03-18T07:23:55;-23911.09;;;4.01;100.00
23659;BME280;12006;42.666;23.326;2023-03-18T07:26:21;-23910.41;;;3.99;100.00
23659;BME280;12006;42.666;23.326;2023-03-18T07:28:46;-23912.13;;;4.04;100.00
23659;BME280;12006;42.666;23.326;2023-03-18T07:31:12;-23911.44;;;4.02;100.00
23659;BME280;12006;42.666;23.326;2023-03-18T07:33:38;-23912.13;;;4.04;100.00
23659;BME280;12006;42.666;23.326;2023-03-18T07:36:03;-23916.44;;;4.17;100.00
23659;BME280;12006;42.666;23.326;2023-03-18T07:38:29;-23918.50;;;4.22;100.00
23659;BME280;12006;42.666;23.326;2023-03-18T07:40:55;-23920.41;;;4.28;100.00
23659;BME280;12006;42.666;23.326;2023-03-18T07:43:21;-23923.66;;;4.37;100.00
23659;BME280;12006;42.666;23.326;2023-03-18T07:45:46;-23919.72;;;4.26;100.00
23659;BME280;12006;42.666;23.326;2023-03-18T07:48:12;-23914.19;;;4.10;100.00
23659;BME280;12006;42.666;23.326;2023-03-18T07:50:38;-23910.75;;;4.00;100.00
23659;BME280;12006;42.666;23.326;2023-03-18T07:53:05;-23910.06;;;3.98;100.00
23659;BME280;12006;42.666;23.326;2023-03-18T07:55:30;-23908.00;;;3.92;100.00
23659;BME280;12006;42.666;23.326;2023-03-18T07:57:56;-23914.88;;;4.12;100.00
23659;BME280;12006;42.666;23.326;2023-03-18T08:00:21;-23919.53;;;4.25;100.00
23659;BME280;12006;42.666;23.326;2023-03-18T08:02:47;-23915.91;;;4.15;100.00
23659;BME280;12006;42.666;23.326;2023-03-18T08:05:12;-23920.22;;;4.27;100.00
23659;BME280;12006;42.666;23.326;2023-03-18T08:07:38;-23925.22;;;4.42;100.00
23659;BME280;12006;42.666;23.326;2023-03-18T08:10:04;-23929.00;;;4.53;100.00
23659;BME280;12006;42.666;23.326;2023-03-18T08:12:30;-23935.53;;;4.72;100.00
23659;BME280;12006;42.666;23.326;2023-03-18T08:14:56;-23939.00;;;4.81;100.00
23659;BME280;12006;42.666;23.326;2023-03-18T08:17:22;-23946.91;;;5.04;100.00
23659;BME280;12006;42.666;23.326;2023-03-18T08:19:47;-23951.03;;;5.16;100.00
23659;BME280;12006;42.666;23.326;2023-03-18T08:22:13;-23955.00;;;5.28;100.00
23659;BME280;12006;42.666;23.326;2023-03-18T08:24:39;-23957.94;;;5.36;100.00
23659;BME280;12006;42.666;23.326;2023-03-18T08:27:06;-23966.53;;;5.61;100.00
23659;BME280;12006;42.666;23.326;2023-03-18T08:29:31;-23966.53;;;5.61;100.00
23659;BME280;12006;42.666;23.326;2023-03-18T08:31:57;-23975.81;;;5.88;100.00
23659;BME280;12006;42.666;23.326;2023-03-18T08:34:23;-23978.56;;;5.96;100.00
23659;BME280;12006;42.666;23.326;2023-03-18T08:36:48;-23975.47;;;5.87;100.00
23659;BME280;12006;42.666;23.326;2023-03-18T08:39:14;-23975.66;;;5.87;100.00
23659;BME280;12006;42.666;23.326;2023-03-18T08:41:40;-23977.72;;;5.93;100.00
23659;BME280;12006;42.666;23.326;2023-03-18T08:44:06;-23974.63;;;5.84;100.00
23659;BME280;12006;42.666;23.326;2023-03-18T08:46:34;-23979.94;;;6.00;100.00
23659;BME280;12006;42.666;23.326;2023-03-18T08:48:59;-23991.31;;;6.32;100.00
23659;BME280;12006;42.666;23.326;2023-03-18T08:51:25;-23991.13;;;6.32;100.00
23659;BME280;12006;42.666;23.326;2023-03-18T08:53:50;-23993.88;;;6.40;100.00
23659;BME280;12006;42.666;23.326;2023-03-18T08:56:16;-24000.44;;;6.59;100.00
23659;BME280;12006;42.666;23.326;2023-03-18T08:58:42;-24001.63;;;6.62;100.00
23659;BME280;12006;42.666;23.326;2023-03-18T09:01:11;-24004.38;;;6.70;100.00
23659;BME280;12006;42.666;23.326;2023-03-18T09:03:36;-24012.13;;;6.92;100.00
23659;BME280;12006;42.666;23.326;2023-03-18T09:06:02;-24015.38;;;7.02;100.00
23659;BME280;12006;42.666;23.326;2023-03-18T09:08:27;-21802.22;;;7.20;100.00
23659;BME280;12006;42.666;23.326;2023-03-18T09:10:54;-19590.47;;;7.45;100.00
23659;BME280;12006;42.666;23.326;2023-03-18T09:13:21;-18007.59;;;7.59;100.00
23659;BME280;12006;42.666;23.326;2023-03-18T09:15:47;-18325.97;;;7.63;100.00
23659;BME280;12006;42.666;23.326;2023-03-18T09:18:14;-18333.38;;;7.92;100.00
23659;BME280;12006;42.666;23.326;2023-03-18T09:20:40;-17700.75;;;8.03;100.00
23659;BME280;12006;42.666;23.326;2023-03-18T09:23:07;-17385.44;;;8.13;100.00
23659;BME280;12006;42.666;23.326;2023-03-18T09:25:33;-15485.06;;;8.44;100.00
23659;BME280;12006;42.666;23.326;2023-03-18T09:27:59;-14217.47;;;8.71;97.22
23659;BME280;12006;42.666;23.326;2023-03-18T09:30:25;-12946.06;;;8.83;87.94
23659;BME280;12006;42.666;23.326;2023-03-18T09:32:52;-12948.44;;;8.98;84.50
23659;BME280;12006;42.666;23.326;2023-03-18T09:35:18;-12311.88;;;9.02;81.96
23659;BME280;12006;42.666;23.326;2023-03-18T09:37:43;-12631.50;;;9.08;82.34
23659;BME280;12006;42.666;23.326;2023-03-18T09:40:22;-13271.22;;;9.23;82.05
23659;BME280;12006;42.666;23.326;2023-03-18T09:45:41;-13596.75;;;9.63;76.45
23659;BME280;12006;42.666;23.326;2023-03-18T09:53:39;-14876.53;;;9.86;78.77
23659;BME280;12006;42.666;23.326;2023-03-18T09:56:13;-14557.47;;;9.85;75.97
23659;BME280;12006;42.666;23.326;2023-03-18T09:58:55;-14876.72;;;9.87;81.56
23659;BME280;12006;42.666;23.326;2023-03-18T10:01:24;-14556.53;;;9.80;76.88
23659;BME280;12006;42.666;23.326;2023-03-18T10:06:26;-14877.59;;;9.92;77.74
23659;BME280;12006;42.666;23.326;2023-03-18T10:11:25;-14240.06;;;9.93;69.93
23659;BME280;12006;42.666;23.326;2023-03-18T10:16:25;-14879.44;;;10.01;74.64
23659;BME280;12006;42.666;23.326;2023-03-18T10:18:53;-14880.59;;;10.07;70.84
23659;BME280;12006;42.666;23.326;2023-03-18T10:21:49;-15204.09;;;10.30;70.97
23659;BME280;12006;42.666;23.326;2023-03-18T10:27:09;-15849.25;;;10.64;67.36
23659;BME280;12006;42.666;23.326;2023-03-18T10:29:49;-15532.69;;;10.77;63.20
23659;BME280;12006;42.666;23.326;2023-03-18T10:40:16;-14576.06;;;10.84;55.17
23659;BME280;12006;42.666;23.326;2023-03-18T10:42:42;-14898.34;;;10.98;55.76
23659;BME280;12006;42.666;23.326;2023-03-18T10:45:21;-15223.31;;;11.26;53.66
23659;BME280;12006;42.666;23.326;2023-03-18T10:50:36;-13615.88;;;10.73;53.28
23659;BME280;12006;42.666;23.326;2023-03-18T10:55:38;-14259.41;;;10.98;54.53
23659;BME280;12006;42.666;23.326;2023-03-18T10:58:16;-14902.09;;;11.18;54.56
23659;BME280;12006;42.666;23.326;2023-03-18T11:00:42;-15545.28;;;11.38;53.86
23659;BME280;12006;42.666;23.326;2023-03-18T11:03:23;-15872.78;;;11.76;52.33
23659;BME280;12006;42.666;23.326;2023-03-18T11:05:50;-15551.09;;;11.66;51.15
23659;BME280;12006;42.666;23.326;2023-03-18T11:08:38;-15228.56;;;11.52;50.65
23659;BME280;12006;42.666;23.326;2023-03-18T11:11:14;-13619.84;;;10.95;50.07
23659;BME280;12006;42.666;23.326;2023-03-18T11:13:51;-12655.94;;;10.63;51.66
23659;BME280;12006;42.666;23.326;2023-03-18T11:16:32;-13616.41;;;10.76;54.68
23659;BME280;12006;42.666;23.326;2023-03-18T11:19:01;-12972.97;;;10.48;57.40
23659;BME280;12006;42.666;23.326;2023-03-18T11:21:30;-12008.41;;;10.04;59.58
23659;BME280;12006;42.666;23.326;2023-03-18T11:23:58;-11366.56;;;9.79;59.08
23659;BME280;12006;42.666;23.326;2023-03-18T11:26:55;-12324.31;;;9.83;59.98
23659;BME280;12006;42.666;23.326;2023-03-18T11:29:30;-12969.41;;;10.26;61.66
23659;BME280;12006;42.666;23.326;2023-03-18T11:31:58;-12971.34;;;10.38;57.40
23659;BME280;12006;42.666;23.326;2023-03-18T11:34:26;-12328.84;;;10.13;56.52
23659;BME280;12006;42.666;23.326;2023-03-18T11:36:57;-12331.34;;;10.29;54.67
23659;BME280;12006;42.666;23.326;2023-03-18T11:39:28;-12331.81;;;10.32;54.07
23659;BME280;12006;42.666;23.326;2023-03-18T11:41:53;-12330.16;;;10.21;55.46
23659;BME280;12006;42.666;23.326;2023-03-18T11:44:27;-11048.47;;;9.87;53.49
23659;BME280;12006;42.666;23.326;2023-03-18T11:47:07;-11368.59;;;9.94;52.36
23659;BME280;12006;42.666;23.326;2023-03-18T11:49:35;-11367.72;;;9.88;54.71
23659;BME280;12006;42.666;23.326;2023-03-18T12:05:37;-12331.28;;;10.28;54.03
23659;BME280;12006;42.666;23.326;2023-03-18T12:08:31;-12011.03;;;10.22;54.33
23659;BME280;12006;42.666;23.326;2023-03-18T12:11:11;-11369.16;;;9.98;55.01
23659;BME280;12006;42.666;23.326;2023-03-18T12:13:47;-11048.34;;;9.86;55.17
23659;BME280;12006;42.666;23.326;2023-03-18T12:21:45;-11046.06;;;9.69;58.81
23659;BME280;12006;42.666;23.326;2023-03-18T12:27:04;-11046.53;;;9.72;57.00
23659;BME280;12006;42.666;23.326;2023-03-18T12:45:22;-9125.66;;;9.15;56.25
23659;BME280;12006;42.666;23.326;2023-03-18T12:47:59;-10085.66;;;9.43;56.17
23659;BME280;12006;42.666;23.326;2023-03-18T12:50:33;-9766.28;;;9.40;56.31
23659;BME280;12006;42.666;23.326;2023-03-18T12:53:03;-9764.91;;;9.27;56.70
23659;BME280;12006;42.666;23.326;2023-03-18T12:55:36;-10085.31;;;9.40;57.07
23659;BME280;12006;42.666;23.326;2023-03-18T12:58:16;-9445.56;;;9.24;56.36
23659;BME280;12006;42.666;23.326;2023-03-18T13:00:59;-9125.97;;;9.18;56.23
23659;BME280;12006;42.666;23.326;2023-03-18T13:03:34;-9125.91;;;9.17;56.36
23659;BME280;12006;42.666;23.326;2023-03-18T13:06:26;-9125.97;;;9.18;56.28
23659;BME280;12006;42.666;23.326;2023-03-18T13:09:17;-9125.47;;;9.13;55.55
23659;BME280;12006;42.666;23.326;2023-03-18T13:14:48;-9765.84;;;9.36;55.56
23659;BME280;12006;42.666;23.326;2023-03-18T13:17:31;-10407.00;;;9.62;54.80
23659;BME280;12006;42.666;23.326;2023-03-18T13:20:02;-10086.81;;;9.53;54.12
23659;BME280;12006;42.666;23.326;2023-03-18T13:28:01;-10729.03;;;9.85;53.02
23659;BME280;12006;42.666;23.326;2023-03-18T13:44:21;-8807.63;;;9.25;52.92
23659;BME280;12006;42.666;23.326;2023-03-18T13:47:02;-9126.84;;;9.27;53.43
23659;BME280;12006;42.666;23.326;2023-03-18T13:49:30;-9767.50;;;9.51;53.44
23659;BME280;12006;42.666;23.326;2023-03-18T13:52:01;-9447.97;;;9.47;51.87
23659;BME280;12006;42.666;23.326;2023-03-18T13:54:33;-9127.94;;;9.38;51.07
23659;BME280;12006;42.666;23.326;2023-03-18T14:00:12;-9449.22;;;9.59;50.45
23659;BME280;12006;42.666;23.326;2023-03-18T14:02:43;-9449.44;;;9.61;50.39
23659;BME280;12006;42.666;23.326;2023-03-18T14:07:57;-10410.44;;;9.90;50.03
23659;BME280;12006;42.666;23.326;2023-03-18T14:10:23;-10731.00;;;10.01;49.35
23659;BME280;12006;42.666;23.326;2023-03-18T14:12:49;-10732.94;;;10.16;48.94
23659;BME280;12006;42.666;23.326;2023-03-18T14:17:43;-9450.28;;;9.68;49.74
23659;BME280;12006;42.666;23.326;2023-03-18T14:22:50;-8810.19;;;9.52;49.93
23659;BME280;12006;42.666;23.326;2023-03-18T14:27:56;-7851.03;;;9.33;48.32
23659;BME280;12006;42.666;23.326;2023-03-18T14:38:22;-7529.97;;;9.07;50.82
23659;BME280;12006;42.666;23.326;2023-03-18T14:40:50;-7210.53;;;9.02;49.78
23659;BME280;12006;42.666;23.326;2023-03-18T14:43:33;-7210.66;;;9.04;49.95
23659;BME280;12006;42.666;23.326;2023-03-18T14:46:14;-7210.59;;;9.03;50.34